createdAt,value
2023-03-05T00:02:28.482Z,55.82
2023-03-05T00:04:57.601Z,55.85
2023-03-05T00:07:29.699Z,55.89
2023-03-05T00:10:03.514Z,55.96
2023-03-05T00:12:32.728Z,55.82
2023-03-05T00:15:03.808Z,56.05
2023-03-05T00:17:31.916Z,56.11
2023-03-05T00:20:03.173Z,56.07
2023-03-05T00:22:33.998Z,56.14
2023-03-05T00:25:03.695Z,56.16
2023-03-05T00:27:33.482Z,56.25
2023-03-05T00:30:03.740Z,56.24
2023-03-05T00:32:32.170Z,56.26
2023-03-05T00:35:01.024Z,56.23
2023-03-05T00:37:32.895Z,56.33
2023-03-05T00:40:01.098Z,56.34
2023-03-05T00:42:33.404Z,56.27
2023-03-05T00:45:02.366Z,56.54
2023-03-05T00:47:32.774Z,56.36
2023-03-05T00:50:03.399Z,56.50
2023-03-05T00:52:33.152Z,56.53
2023-03-05T00:55:03.209Z,56.54
2023-03-05T00:57:32.434Z,56.56
2023-03-05T01:00:04.368Z,56.70
2023-03-05T01:02:36.064Z,56.72
2023-03-05T01:05:06.129Z,56.62
2023-03-05T01:07:35.501Z,56.70
2023-03-05T01:10:06.802Z,56.61
2023-03-05T01:12:34.625Z,56.70
2023-03-05T01:15:06.984Z,56.81
2023-03-05T01:17:35.161Z,56.90
2023-03-05T01:20:06.289Z,56.91
2023-03-05T01:22:36.514Z,56.75
2023-03-05T01:25:07.175Z,56.85
2023-03-05T01:27:37.000Z,57.02
2023-03-05T01:30:08.551Z,57.06
2023-03-05T01:32:36.562Z,56.84
2023-03-05T01:35:06.860Z,57.11
2023-03-05T01:37:40.356Z,57.03
2023-03-05T01:40:11.913Z,56.90
2023-03-05T01:42:41.482Z,57.06
2023-03-05T01:45:15.262Z,57.25
2023-03-05T01:47:44.021Z,57.06
2023-03-05T01:50:17.718Z,57.15
2023-03-05T01:52:58.794Z,57.06
2023-03-05T01:55:30.667Z,57.21
2023-03-05T01:58:12.565Z,57.27
2023-03-05T02:00:49.685Z,57.26
2023-03-05T02:03:18.731Z,57.24
2023-03-05T02:05:46.586Z,57.35
2023-03-05T02:08:19.923Z,57.48
2023-03-05T02:10:51.873Z,57.35
2023-03-05T02:13:23.973Z,57.51
2023-03-05T02:15:55.787Z,57.60
2023-03-05T02:18:24.857Z,57.60
2023-03-05T02:20:56.706Z,57.69
2023-03-05T02:23:28.902Z,57.68
2023-03-05T02:25:58.793Z,57.60
2023-03-05T02:28:52.323Z,57.61
2023-03-05T02:31:23.987Z,57.70
2023-03-05T02:33:55.735Z,57.67
2023-03-05T02:36:25.808Z,57.68
2023-03-05T02:38:58.759Z,57.71
2023-03-05T02:41:26.831Z,57.79
2023-03-05T02:43:56.926Z,57.84
2023-03-05T02:46:25.659Z,57.70
2023-03-05T02:48:57.171Z,57.80
2023-03-05T02:51:26.021Z,57.76
2023-03-05T02:53:56.235Z,57.88
2023-03-05T02:56:28.735Z,57.93
2023-03-05T02:59:00.833Z,57.98
2023-03-05T03:01:30.229Z,57.89
2023-03-05T03:04:02.258Z,58.11
2023-03-05T03:06:30.478Z,57.96
2023-03-05T03:08:59.677Z,58.20
2023-03-05T03:11:28.792Z,58.25
2023-03-05T03:13:58.090Z,58.36
2023-03-05T03:16:28.347Z,58.23
2023-03-05T03:18:56.157Z,58.25
2023-03-05T03:21:26.551Z,58.41
2023-03-05T03:23:55.203Z,58.33
2023-03-05T03:26:26.909Z,58.48
2023-03-05T03:28:56.041Z,58.44
2023-03-05T03:31:25.322Z,58.49
2023-03-05T03:33:56.516Z,58.64
2023-03-05T03:36:26.278Z,58.50
2023-03-05T03:38:54.501Z,58.47
2023-03-05T03:41:23.819Z,58.52
2023-03-05T03:43:52.737Z,58.61
2023-03-05T03:46:22.627Z,58.43
2023-03-05T03:48:51.977Z,58.62
2023-03-05T03:51:22.630Z,58.58
2023-03-05T03:53:54.538Z,58.65
2023-03-05T03:56:24.679Z,58.66
2023-03-05T03:58:55.662Z,58.76
2023-03-05T04:01:24.343Z,58.75
2023-03-05T04:03:53.218Z,58.94
2023-03-05T04:06:23.106Z,59.03
2023-03-05T04:08:51.834Z,58.87
2023-03-05T04:11:23.134Z,58.96
2023-03-05T04:13:54.234Z,59.01
2023-03-05T04:16:24.277Z,59.18
2023-03-05T04:18:52.684Z,59.26
2023-03-05T04:21:21.236Z,59.27
2023-03-05T04:23:51.485Z,59.33
2023-03-05T04:26:23.213Z,59.47
2023-03-05T04:28:50.798Z,59.48
2023-03-05T04:31:20.424Z,59.57
2023-03-05T04:33:48.604Z,59.48
2023-03-05T04:36:19.188Z,59.53
2023-03-05T04:38:50.874Z,59.49
2023-03-05T04:41:20.685Z,59.48
2023-03-05T04:43:48.490Z,59.41
2023-03-05T04:46:21.899Z,59.65
2023-03-05T04:48:50.809Z,59.59
2023-03-05T04:51:18.893Z,59.90
2023-03-05T04:53:48.646Z,59.79
2023-03-05T04:56:20.604Z,59.91
2023-03-05T04:58:49.359Z,60.04
2023-03-05T05:01:21.312Z,60.02
2023-03-05T05:03:50.776Z,60.18
2023-03-05T05:06:18.357Z,60.01
2023-03-05T05:08:48.059Z,60.12
2023-03-05T05:11:16.968Z,60.22
2023-03-05T05:13:46.888Z,60.15
2023-03-05T05:16:17.331Z,60.12
2023-03-05T05:18:46.400Z,60.28
2023-03-05T05:21:18.346Z,60.48
2023-03-05T05:23:46.293Z,60.52
2023-03-05T05:26:17.377Z,60.50
2023-03-05T05:28:46.784Z,60.71
2023-03-05T05:31:17.464Z,60.55
2023-03-05T05:33:49.805Z,60.67
2023-03-05T05:36:22.502Z,60.80
2023-03-05T05:38:51.204Z,60.77
2023-03-05T05:41:20.650Z,60.70
2023-03-05T05:43:52.226Z,60.82
2023-03-05T05:46:22.487Z,60.81
2023-03-05T05:48:51.431Z,60.76
2023-03-05T05:51:22.826Z,60.79
2023-03-05T05:53:53.932Z,60.82
2023-03-05T05:56:25.174Z,60.82
2023-03-05T05:58:55.558Z,60.96
2023-03-05T06:01:29.954Z,61.02
2023-03-05T06:04:03.312Z,60.95
2023-03-05T06:06:34.636Z,61.38
2023-03-05T06:09:05.175Z,61.13
2023-03-05T06:11:35.619Z,61.31
2023-03-05T06:14:08.451Z,61.24
2023-03-05T06:16:38.239Z,61.38
2023-03-05T06:19:05.956Z,61.32
2023-03-05T06:21:35.395Z,61.35
2023-03-05T06:24:04.455Z,61.42
2023-03-05T06:26:34.090Z,61.28
2023-03-05T06:29:04.512Z,61.24
2023-03-05T06:31:36.153Z,61.26
2023-03-05T06:34:05.673Z,61.38
2023-03-05T06:36:33.690Z,61.40
2023-03-05T06:39:01.640Z,61.27
2023-03-05T06:41:32.801Z,60.30
2023-03-05T06:44:04.781Z,60.26
2023-03-05T06:46:35.545Z,60.37
2023-03-05T06:49:04.250Z,60.27
2023-03-05T06:51:35.027Z,60.28
2023-03-05T06:54:06.943Z,60.54
2023-03-05T06:56:39.767Z,60.46
2023-03-05T06:59:08.993Z,60.61
2023-03-05T07:01:40.013Z,60.60
2023-03-05T07:04:09.616Z,60.89
2023-03-05T07:06:41.867Z,60.79
2023-03-05T07:09:16.502Z,61.18
2023-03-05T07:11:45.800Z,61.10
2023-03-05T07:14:16.881Z,61.07
2023-03-05T07:16:47.086Z,60.79
2023-03-05T07:19:16.031Z,60.73
2023-03-05T07:21:48.286Z,60.43
2023-03-05T07:24:16.186Z,60.83
2023-03-05T07:26:46.889Z,60.74
2023-03-05T07:29:16.501Z,60.83
2023-03-05T07:31:45.314Z,60.84
2023-03-05T07:34:15.093Z,61.10
2023-03-05T07:36:43.698Z,60.73
2023-03-05T07:39:13.963Z,60.69
2023-03-05T07:41:44.914Z,60.95
2023-03-05T07:44:17.220Z,60.71
2023-03-05T07:46:46.982Z,60.80
2023-03-05T07:49:15.389Z,60.29
2023-03-05T07:51:45.774Z,60.50
2023-03-05T07:54:15.386Z,60.74
2023-03-05T07:56:47.116Z,60.79
2023-03-05T07:59:15.933Z,60.80
2023-03-05T08:01:46.141Z,61.27
2023-03-05T08:04:15.467Z,61.06
2023-03-05T08:06:43.420Z,61.05
2023-03-05T08:09:13.116Z,61.38
2023-03-05T08:11:41.135Z,61.38
2023-03-05T08:14:11.353Z,61.08
2023-03-05T08:16:41.626Z,61.43
2023-03-05T08:19:12.708Z,61.36
2023-03-05T08:21:42.190Z,61.34
2023-03-05T08:24:12.742Z,61.63
2023-03-05T08:26:46.120Z,61.60
2023-03-05T08:29:15.806Z,61.78
2023-03-05T08:31:46.729Z,61.41
2023-03-05T08:34:15.109Z,61.59
2023-03-05T08:36:46.212Z,61.34
2023-03-05T08:39:16.800Z,61.25
2023-03-05T08:41:45.673Z,61.09
2023-03-05T08:44:14.656Z,60.93
2023-03-05T08:46:43.334Z,60.91
2023-03-05T08:49:13.698Z,60.83
2023-03-05T08:51:43.512Z,61.04
2023-03-05T08:54:12.067Z,60.52
2023-03-05T08:56:42.452Z,60.52
2023-03-05T08:59:13.698Z,60.77
2023-03-05T09:01:46.753Z,61.07
2023-03-05T09:04:16.753Z,60.98
2023-03-05T09:06:48.170Z,61.20
2023-03-05T09:09:16.631Z,61.24
2023-03-05T09:11:44.978Z,60.99
2023-03-05T09:15:03.236Z,61.10
2023-03-05T09:17:31.587Z,61.49
2023-03-05T09:20:02.281Z,61.26
2023-03-05T09:22:33.765Z,61.49
2023-03-05T09:25:03.933Z,61.36
2023-03-05T09:27:39.262Z,61.56
2023-03-05T09:30:09.652Z,61.25
2023-03-05T09:32:39.716Z,61.32
2023-03-05T09:35:09.458Z,61.33
2023-03-05T09:37:38.786Z,61.33
2023-03-05T09:40:08.256Z,61.34
2023-03-05T09:42:46.264Z,61.42
2023-03-05T09:45:38.109Z,61.37
2023-03-05T09:48:20.366Z,61.51
2023-03-05T09:50:53.207Z,61.63
2023-03-05T09:53:39.532Z,61.41
2023-03-05T09:56:12.696Z,61.56
2023-03-05T09:58:47.494Z,61.36
2023-03-05T10:01:31.776Z,61.43
2023-03-05T10:04:24.221Z,61.22
2023-03-05T10:06:58.537Z,61.19
2023-03-05T10:10:01.323Z,61.26
2023-03-05T10:12:32.619Z,61.37
2023-03-05T10:15:02.893Z,61.17
2023-03-05T10:17:50.845Z,61.26
2023-03-05T10:20:44.892Z,60.83
2023-03-05T10:23:25.025Z,60.52
2023-03-05T10:26:45.431Z,60.50
2023-03-05T10:29:39.179Z,60.14
2023-03-05T10:32:36.175Z,59.73
2023-03-05T10:35:13.863Z,59.16
2023-03-05T10:37:52.392Z,59.55
2023-03-05T10:40:24.734Z,59.72
2023-03-05T10:43:08.020Z,60.35
2023-03-05T10:45:44.580Z,60.10
2023-03-05T10:48:49.389Z,59.91
2023-03-05T10:51:24.240Z,59.42
2023-03-05T10:53:59.570Z,59.13
2023-03-05T10:56:29.157Z,59.57
2023-03-05T10:58:58.204Z,59.44
2023-03-05T11:01:29.704Z,59.52
2023-03-05T11:04:04.789Z,59.67
2023-03-05T11:06:55.874Z,59.68
2023-03-05T11:09:35.145Z,59.44
2023-03-05T11:12:19.561Z,59.74
2023-03-05T11:15:38.484Z,59.43
2023-03-05T11:18:18.097Z,59.38
2023-03-05T11:20:46.762Z,59.24
2023-03-05T11:23:24.398Z,58.97
2023-03-05T11:25:57.378Z,59.14
2023-03-05T11:28:39.439Z,59.30
2023-03-05T11:31:17.957Z,59.34
2023-03-05T11:34:02.799Z,59.97
2023-03-05T11:36:36.955Z,59.50
2023-03-05T11:39:33.131Z,59.40
2023-03-05T11:42:16.293Z,59.84
2023-03-05T11:44:50.322Z,59.71
2023-03-05T11:47:38.261Z,59.80
2023-03-05T11:50:34.714Z,59.75
2023-03-05T11:53:13.452Z,59.26
2023-03-05T11:56:19.205Z,59.74
2023-03-05T11:59:19.468Z,59.59
2023-03-05T12:01:53.518Z,59.66
2023-03-05T12:04:22.345Z,58.99
2023-03-05T12:07:00.167Z,58.99
2023-03-05T12:09:43.068Z,59.34
2023-03-05T12:12:36.393Z,59.38
2023-03-05T12:15:18.602Z,59.21
2023-03-05T12:18:31.093Z,59.04
2023-03-05T12:21:26.903Z,58.81
2023-03-05T12:24:01.602Z,58.58
2023-03-05T12:26:56.101Z,59.30
2023-03-05T12:29:41.257Z,58.79
2023-03-05T12:32:25.973Z,59.00
2023-03-05T12:35:26.888Z,58.99
2023-03-05T12:37:56.353Z,58.87
2023-03-05T12:40:29.170Z,58.90
2023-03-05T12:43:35.337Z,59.27
2023-03-05T12:46:27.019Z,59.77
2023-03-05T12:49:18.751Z,59.11
2023-03-05T12:51:54.912Z,58.19
2023-03-05T12:54:39.728Z,58.81
2023-03-05T12:57:26.300Z,58.60
2023-03-05T13:00:09.081Z,58.05
2023-03-05T13:02:45.022Z,57.95
2023-03-05T13:05:30.452Z,57.95
2023-03-05T13:08:19.297Z,57.96
2023-03-05T13:11:22.045Z,58.74
2023-03-05T13:13:52.744Z,58.37
2023-03-05T13:16:44.458Z,58.22
2023-03-05T13:19:17.906Z,58.41
2023-03-05T13:22:01.755Z,58.58
2023-03-05T13:24:33.467Z,58.62
2023-03-05T13:27:22.979Z,58.51
2023-03-05T13:29:53.536Z,58.80
2023-03-05T13:32:32.953Z,59.05
2023-03-05T13:35:12.803Z,59.22
2023-03-05T13:37:44.689Z,58.62
2023-03-05T13:40:22.860Z,58.16
2023-03-05T13:42:57.334Z,58.15
2023-03-05T13:45:30.351Z,57.69
2023-03-05T13:48:04.774Z,58.05
2023-03-05T13:50:40.103Z,57.60
2023-03-05T13:53:38.785Z,57.53
2023-03-05T13:56:14.669Z,56.78
2023-03-05T13:58:50.870Z,56.58
2023-03-05T14:01:48.649Z,56.46
2023-03-05T14:04:30.352Z,56.25
2023-03-05T14:07:00.843Z,56.41
2023-03-05T14:09:57.237Z,56.74
2023-03-05T14:12:38.891Z,56.70
2023-03-05T14:15:44.395Z,57.33
2023-03-05T14:18:16.764Z,56.95
2023-03-05T14:21:04.592Z,57.03
2023-03-05T14:23:38.612Z,57.77
2023-03-05T14:26:32.883Z,58.24
2023-03-05T14:29:17.777Z,58.27
2023-03-05T14:32:31.174Z,57.81
2023-03-05T14:35:03.803Z,58.09
2023-03-05T14:37:42.582Z,58.59
2023-03-05T14:40:13.897Z,59.02
2023-03-05T14:42:55.423Z,58.90
2023-03-05T14:45:31.550Z,59.34
2023-03-05T14:48:04.189Z,59.39
2023-03-05T14:50:44.566Z,59.08
2023-03-05T14:53:18.185Z,58.78
2023-03-05T14:55:50.442Z,58.90
2023-03-05T14:58:25.386Z,59.07
2023-03-05T15:01:03.824Z,58.85
2023-03-05T15:03:38.380Z,58.65
2023-03-05T15:06:26.202Z,58.94
2023-03-05T15:08:57.316Z,58.98
2023-03-05T15:11:29.488Z,59.30
2023-03-05T15:13:59.783Z,59.04
2023-03-05T15:16:32.200Z,59.18
2023-03-05T15:19:04.078Z,59.84
2023-03-05T15:21:34.540Z,59.73
2023-03-05T15:24:05.220Z,59.68
2023-03-05T15:26:37.655Z,59.34
2023-03-05T15:29:08.083Z,59.59
2023-03-05T15:31:40.866Z,59.36
2023-03-05T15:34:17.461Z,60.08
2023-03-05T15:36:50.435Z,60.35
2023-03-05T15:39:20.981Z,60.57
2023-03-05T15:41:51.371Z,60.41
2023-03-05T15:44:22.913Z,60.19
2023-03-05T15:46:55.370Z,60.60
2023-03-05T15:49:28.547Z,60.32
2023-03-05T15:52:00.542Z,60.23
2023-03-05T15:54:30.737Z,60.22
2023-03-05T15:57:03.748Z,60.13
2023-03-05T15:59:33.435Z,60.23
2023-03-05T16:02:05.782Z,60.25
2023-03-05T16:04:36.606Z,60.75
2023-03-05T16:07:07.653Z,60.59
2023-03-05T16:09:41.502Z,60.61
2023-03-05T16:12:19.054Z,60.63
2023-03-05T16:14:52.065Z,60.49
2023-03-05T16:17:25.994Z,60.67
2023-03-05T16:19:57.471Z,60.60
2023-03-05T16:22:28.264Z,60.41
2023-03-05T16:25:01.647Z,60.40
2023-03-05T16:27:34.236Z,60.50
2023-03-05T16:30:06.872Z,60.52
2023-03-05T16:32:39.879Z,60.59
2023-03-05T16:35:15.057Z,60.57
2023-03-05T16:37:46.071Z,60.58
2023-03-05T16:40:17.178Z,60.38
2023-03-05T16:42:51.257Z,60.60
2023-03-05T16:45:27.985Z,60.42
2023-03-05T16:48:01.414Z,60.49
2023-03-05T16:50:30.804Z,60.67
2023-03-05T16:53:01.144Z,60.54
2023-03-05T16:55:31.903Z,60.59
2023-03-05T16:58:02.169Z,60.54
2023-03-05T17:00:35.277Z,60.85
2023-03-05T17:03:08.601Z,60.81
2023-03-05T17:05:40.290Z,60.83
2023-03-05T17:08:11.658Z,60.64
2023-03-05T17:10:44.061Z,60.97
2023-03-05T17:13:15.377Z,60.87
2023-03-05T17:15:46.390Z,60.84
2023-03-05T17:18:15.058Z,60.69
2023-03-05T17:20:50.527Z,61.16
2023-03-05T17:23:24.774Z,61.03
2023-03-05T17:25:56.173Z,61.01
2023-03-05T17:28:27.259Z,61.01
2023-03-05T17:31:00.602Z,61.09
2023-03-05T17:33:35.008Z,61.20
2023-03-05T17:36:06.406Z,61.23
2023-03-05T17:38:36.570Z,61.17
2023-03-05T17:41:10.655Z,61.15
2023-03-05T17:43:42.150Z,61.25
2023-03-05T17:46:13.973Z,61.10
2023-03-05T17:48:47.057Z,61.14
2023-03-05T17:51:23.499Z,61.03
2023-03-05T17:53:57.294Z,61.06
2023-03-05T17:56:30.390Z,61.19
2023-03-05T17:59:01.961Z,61.19
2023-03-05T18:01:35.103Z,61.19
2023-03-05T18:04:05.027Z,61.27
2023-03-05T18:06:34.884Z,61.40
2023-03-05T18:09:05.357Z,61.38
2023-03-05T18:11:36.460Z,61.67
2023-03-05T18:14:08.946Z,61.82
2023-03-05T18:16:41.260Z,61.72
2023-03-05T18:19:12.608Z,61.67
2023-03-05T18:21:48.197Z,61.63
2023-03-05T18:24:21.982Z,61.62
2023-03-05T18:26:52.714Z,61.59
2023-03-05T18:29:23.730Z,61.67
2023-03-05T18:31:58.803Z,61.85
2023-03-05T18:34:30.946Z,61.70
2023-03-05T18:37:02.320Z,61.87
2023-03-05T18:39:36.130Z,61.96
2023-03-05T18:42:16.368Z,62.22
2023-03-05T18:44:50.148Z,62.24
2023-03-05T18:47:22.246Z,62.11
2023-03-05T18:49:54.625Z,62.31
2023-03-05T18:52:26.925Z,62.20
2023-03-05T18:54:58.230Z,62.29
2023-03-05T18:57:33.223Z,62.35
2023-03-05T19:00:04.485Z,62.44
2023-03-05T19:02:34.990Z,62.37
2023-03-05T19:05:10.407Z,62.25
2023-03-05T19:07:44.614Z,62.47
2023-03-05T19:10:18.561Z,62.59
2023-03-05T19:13:08.259Z,62.63
2023-03-05T19:15:41.519Z,62.90
2023-03-05T19:18:13.639Z,62.88
2023-03-05T19:20:48.087Z,63.03
2023-03-05T19:23:19.180Z,63.03
2023-03-05T19:25:52.274Z,63.14
2023-03-05T19:28:28.117Z,63.21
2023-03-05T19:30:57.704Z,63.20
2023-03-05T19:33:30.977Z,63.10
2023-03-05T19:35:59.931Z,62.98
2023-03-05T19:38:36.073Z,63.02
2023-03-05T19:41:12.766Z,63.04
2023-03-05T19:43:43.416Z,63.11
2023-03-05T19:46:14.027Z,63.22
2023-03-05T19:48:48.378Z,63.38
2023-03-05T19:51:22.453Z,63.25
2023-03-05T19:53:56.649Z,63.52
2023-03-05T19:56:27.804Z,63.43
2023-03-05T19:59:01.083Z,63.45
2023-03-05T20:01:34.934Z,63.28
2023-03-05T20:04:07.737Z,63.40
2023-03-05T20:06:41.662Z,63.44
2023-03-05T20:09:17.455Z,63.58
2023-03-05T20:11:52.156Z,63.65
2023-03-05T20:14:24.641Z,63.61
2023-03-05T20:16:55.767Z,63.65
2023-03-05T20:19:25.116Z,63.64
2023-03-05T20:21:58.034Z,63.69
2023-03-05T20:24:34.627Z,63.70
2023-03-05T20:27:07.494Z,63.44
2023-03-05T20:29:42.170Z,63.63
2023-03-05T20:32:18.434Z,63.77
2023-03-05T20:34:53.842Z,63.75
2023-03-05T20:37:30.805Z,63.87
2023-03-05T20:40:01.837Z,63.77
2023-03-05T20:42:35.872Z,63.87
2023-03-05T20:45:06.948Z,63.98
2023-03-05T20:47:42.040Z,64.05
2023-03-05T20:50:18.891Z,64.05
2023-03-05T20:53:03.918Z,64.20
2023-03-05T20:55:43.316Z,64.30
2023-03-05T20:58:15.255Z,64.17
2023-03-05T21:00:51.904Z,64.24
2023-03-05T21:03:28.657Z,64.27
2023-03-05T21:06:07.454Z,64.20
2023-03-05T21:08:41.325Z,64.35
2023-03-05T21:11:17.384Z,64.30
2023-03-05T21:13:50.774Z,64.27
2023-03-05T21:16:24.383Z,64.52
2023-03-05T21:19:34.511Z,64.52
2023-03-05T21:25:43.341Z,64.42
2023-03-05T21:28:42.240Z,64.58
2023-03-05T21:31:22.189Z,64.59
2023-03-05T21:34:16.635Z,64.57
2023-03-05T21:36:51.873Z,64.49
2023-03-05T21:39:45.427Z,64.53
2023-03-05T21:42:35.056Z,64.52
2023-03-05T21:45:26.878Z,64.53
2023-03-05T21:48:13.820Z,64.54
2023-03-05T21:50:47.961Z,64.63
2023-03-05T21:53:18.250Z,64.70
2023-03-05T21:56:03.903Z,64.68
2023-03-05T21:58:33.237Z,64.85
2023-03-05T22:01:03.165Z,64.83
2023-03-05T22:03:32.897Z,64.82
2023-03-05T22:06:05.142Z,64.83
2023-03-05T22:08:34.322Z,65.10
2023-03-05T22:11:09.489Z,64.81
2023-03-05T22:13:39.346Z,65.00
2023-03-05T22:16:10.674Z,64.96
2023-03-05T22:18:40.863Z,65.10
2023-03-05T22:21:23.302Z,64.99
2023-03-05T22:23:53.125Z,65.10
2023-03-05T22:26:25.335Z,64.98
2023-03-05T22:28:55.349Z,65.06
2023-03-05T22:31:27.186Z,65.12
2023-03-05T22:33:58.259Z,65.07
2023-03-05T22:36:28.942Z,65.34
2023-03-05T22:39:00.012Z,65.19
2023-03-05T22:41:30.881Z,65.17
2023-03-05T22:44:01.519Z,65.26
2023-03-05T22:46:32.562Z,65.12
2023-03-05T22:49:03.985Z,65.26
2023-03-05T22:51:34.968Z,65.30
2023-03-05T22:54:07.185Z,65.44
2023-03-05T22:56:36.519Z,65.49
2023-03-05T22:59:07.447Z,65.45
2023-03-05T23:01:37.912Z,65.52
2023-03-05T23:04:18.457Z,65.68
2023-03-05T23:06:50.137Z,65.60
2023-03-05T23:09:20.194Z,65.62
2023-03-05T23:11:51.814Z,65.51
2023-03-05T23:15:10.265Z,65.61
2023-03-05T23:17:42.671Z,65.46
2023-03-05T23:20:16.409Z,65.48
2023-03-05T23:22:46.443Z,65.37
2023-03-05T23:25:16.493Z,65.54
2023-03-05T23:27:45.938Z,65.34
2023-03-05T23:30:20.931Z,65.62
2023-03-05T23:33:03.882Z,65.76
2023-03-05T23:35:36.532Z,65.62
2023-03-05T23:38:08.936Z,65.57
2023-03-05T23:40:45.536Z,65.68
2023-03-05T23:43:15.115Z,65.75
2023-03-05T23:45:47.832Z,65.73
2023-03-05T23:48:18.959Z,65.69
2023-03-05T23:50:48.873Z,65.59
2023-03-05T23:53:27.036Z,65.70
2023-03-05T23:55:59.293Z,65.91
2023-03-05T23:58:30.275Z,65.89
